createdAt,value
2023-05-08T08:32:27.978Z,9.57
2023-05-08T08:34:54.498Z,9.76
2023-05-08T09:01:33.344Z,10.02
2023-05-08T09:04:00.111Z,9.44
2023-05-08T09:06:28.743Z,9.69
2023-05-08T09:08:55.193Z,10.25
2023-05-08T09:11:24.404Z,9.99
2023-05-08T09:13:50.952Z,10.26
2023-05-08T09:16:17.509Z,10.34
2023-05-08T09:18:44.668Z,9.93
2023-05-08T09:21:11.454Z,10.05
2023-05-08T09:23:38.260Z,10.10
2023-05-08T09:26:06.728Z,9.78
2023-05-08T09:28:33.160Z,9.70
2023-05-08T09:30:59.843Z,10.27
2023-05-08T09:33:26.236Z,10.09
2023-05-08T09:35:52.914Z,10.27
2023-05-08T09:38:19.344Z,10.36
2023-05-08T09:40:45.834Z,10.15
2023-05-08T09:43:12.591Z,10.24
2023-05-08T09:45:39.085Z,10.55
2023-05-08T09:48:05.837Z,10.21
2023-05-08T09:50:32.467Z,10.54
2023-05-08T09:52:58.851Z,10.62
2023-05-08T09:55:27.582Z,10.86
2023-05-08T10:00:19.165Z,11.37
2023-05-08T10:02:46.030Z,10.67
2023-05-08T15:08:08.423Z,17.50
2023-05-08T15:34:49.079Z,17.59
2023-05-08T15:37:15.518Z,17.74
2023-05-08T15:44:54.002Z,18.07
2023-05-08T15:47:23.618Z,17.07
2023-05-08T15:49:50.308Z,16.94
2023-05-08T15:52:16.756Z,16.90
2023-05-08T15:54:43.277Z,17.36
2023-05-08T15:57:09.632Z,17.70
2023-05-08T15:59:36.064Z,17.84
2023-05-08T16:02:02.527Z,17.92
2023-05-08T16:04:29.012Z,18.06
2023-05-08T16:06:55.422Z,18.10
2023-05-08T16:09:21.940Z,17.98
2023-05-08T16:11:48.282Z,18.09
2023-05-08T16:14:14.760Z,18.30
2023-05-08T16:16:41.250Z,18.24
2023-05-08T16:19:07.881Z,18.29
2023-05-08T16:21:34.270Z,18.05
2023-05-08T16:24:00.730Z,18.04
2023-05-08T16:26:27.452Z,18.22
2023-05-08T16:28:53.894Z,18.28
2023-05-08T16:31:20.356Z,18.14
2023-05-08T16:33:46.868Z,18.09
2023-05-08T16:36:13.661Z,17.71
2023-05-08T16:38:40.056Z,17.43
2023-05-08T16:41:06.639Z,17.57
2023-05-08T16:43:33.126Z,17.76
2023-05-08T16:45:59.814Z,17.85
2023-05-08T16:48:26.363Z,17.96
2023-05-08T16:50:52.864Z,17.13
2023-05-08T16:53:19.298Z,16.75
2023-05-08T16:55:45.690Z,17.14
2023-05-08T16:58:12.225Z,17.45
2023-05-08T17:00:38.748Z,17.56
2023-05-08T17:03:05.442Z,17.64
2023-05-08T17:05:31.937Z,17.04
2023-05-08T17:07:58.787Z,16.96
2023-05-08T17:10:25.672Z,17.09
2023-05-08T17:12:54.085Z,16.88
2023-05-08T17:15:21.248Z,16.81
2023-05-08T17:17:48.379Z,17.00
2023-05-08T17:20:15.869Z,17.08
2023-05-08T17:22:43.065Z,16.84
2023-05-08T17:25:10.018Z,17.02
2023-05-08T17:27:37.186Z,17.28
2023-05-08T17:30:05.041Z,17.30
2023-05-08T17:32:32.395Z,17.04
2023-05-08T17:34:59.621Z,17.08
2023-05-08T17:37:26.852Z,17.25
2023-05-08T17:39:54.002Z,17.32
2023-05-08T17:42:22.560Z,17.29
2023-05-08T17:44:49.639Z,17.24
2023-05-08T17:47:16.905Z,17.15
2023-05-08T17:49:46.290Z,16.77
2023-05-08T17:52:13.548Z,16.60
2023-05-08T17:54:41.272Z,16.53
2023-05-08T17:57:08.393Z,16.43
2023-05-08T17:59:35.627Z,16.38
2023-05-08T18:02:03.230Z,16.33
2023-05-08T18:04:30.476Z,16.08
2023-05-08T18:07:00.125Z,15.93
2023-05-08T18:09:27.204Z,15.77
2023-05-08T18:11:56.747Z,15.51
2023-05-08T18:14:25.050Z,15.43
2023-05-08T18:16:52.135Z,15.27
2023-05-08T18:19:19.368Z,15.16
2023-05-08T18:21:46.519Z,15.39
2023-05-08T18:24:14.202Z,15.42
2023-05-08T18:26:41.322Z,15.26
2023-05-08T18:29:08.517Z,15.24
2023-05-08T18:31:35.833Z,15.31
2023-05-08T18:34:03.490Z,15.21
2023-05-08T18:36:30.908Z,15.25
2023-05-08T18:38:58.024Z,15.06
2023-05-08T18:41:25.342Z,14.99
2023-05-08T18:43:52.459Z,15.03
2023-05-08T18:46:22.674Z,15.11
2023-05-08T18:48:51.001Z,14.89
2023-05-08T18:51:18.721Z,14.92
2023-05-08T18:53:46.077Z,14.60
2023-05-08T18:56:14.121Z,14.02
2023-05-08T18:58:41.216Z,13.88
2023-05-08T19:01:08.504Z,14.22
2023-05-08T19:03:35.789Z,13.83
2023-05-08T19:06:03.034Z,13.65
2023-05-08T19:08:30.573Z,14.03
2023-05-08T19:10:58.064Z,14.00
2023-05-08T19:13:25.299Z,13.90
2023-05-08T19:15:52.438Z,13.55
2023-05-08T19:18:19.680Z,13.81
2023-05-08T19:20:46.906Z,13.53
2023-05-08T19:23:14.403Z,13.69
2023-05-08T19:25:41.676Z,13.88
2023-05-08T19:28:08.733Z,13.54
2023-05-08T19:30:35.865Z,13.59
2023-05-08T19:33:03.026Z,13.84
2023-05-08T19:35:30.184Z,14.02
2023-05-08T19:37:57.264Z,13.99
2023-05-08T19:40:24.410Z,13.73
2023-05-08T19:42:51.525Z,13.72
2023-05-08T19:45:19.059Z,13.80
2023-05-08T19:47:46.294Z,13.94
2023-05-08T19:50:13.532Z,14.02
2023-05-08T19:52:40.877Z,14.10
2023-05-08T19:55:08.075Z,14.17
2023-05-08T19:57:35.230Z,14.14
2023-05-08T20:00:02.356Z,14.13
2023-05-08T20:02:29.580Z,14.07
2023-05-08T20:07:26.595Z,14.13
2023-05-08T20:09:54.234Z,13.95
2023-05-08T20:12:22.460Z,13.67
2023-05-08T20:14:49.491Z,13.29
2023-05-08T20:17:16.600Z,12.97
2023-05-08T20:19:43.609Z,13.10
2023-05-08T20:22:10.791Z,13.19
2023-05-08T20:24:37.456Z,12.95
2023-05-08T20:27:07.925Z,12.74
2023-05-08T20:29:34.446Z,13.08
2023-05-08T20:32:01.030Z,13.14
2023-05-08T20:34:29.601Z,13.27
2023-05-08T20:36:56.113Z,13.39
2023-05-08T20:39:22.807Z,13.37
2023-05-08T20:41:49.281Z,13.04
2023-05-08T20:44:15.677Z,13.22
2023-05-08T20:46:42.538Z,13.07
2023-05-08T20:49:10.022Z,12.98
2023-05-08T20:51:36.546Z,12.83
2023-05-08T20:54:03.024Z,13.02
2023-05-08T20:56:29.817Z,13.09
2023-05-08T20:58:56.276Z,12.98
2023-05-08T21:01:22.728Z,12.79
2023-05-08T21:03:49.466Z,12.90
2023-05-08T21:06:15.905Z,12.88
2023-05-08T21:08:42.689Z,12.58
2023-05-08T21:11:10.272Z,12.52
2023-05-08T21:13:36.770Z,12.68
2023-05-08T21:16:03.217Z,12.88
2023-05-08T21:18:29.784Z,12.93
2023-05-08T21:20:56.198Z,12.84
2023-05-08T21:23:22.664Z,12.58
2023-05-08T21:25:49.109Z,12.30
2023-05-08T21:28:15.548Z,12.51
2023-05-08T21:30:41.964Z,12.52
2023-05-08T21:33:08.449Z,12.54
2023-05-08T21:35:34.886Z,12.62
2023-05-08T21:38:01.559Z,12.68
2023-05-08T21:40:28.719Z,12.75
2023-05-08T21:42:57.605Z,12.80
2023-05-08T21:45:24.016Z,12.89
2023-05-08T21:47:50.624Z,12.97
2023-05-08T21:50:17.063Z,12.99
2023-05-08T21:52:43.551Z,13.02
2023-05-08T21:55:13.320Z,12.81
2023-05-08T21:57:43.436Z,12.78
2023-05-08T22:00:15.871Z,12.73
2023-05-08T22:02:45.228Z,12.79
2023-05-08T22:05:13.172Z,12.81
2023-05-08T22:07:41.461Z,12.84
2023-05-08T22:10:08.842Z,12.84
2023-05-08T22:12:37.494Z,12.89
2023-05-08T22:15:09.453Z,12.82
2023-05-08T22:17:38.469Z,12.84
2023-05-08T22:20:05.333Z,12.83
2023-05-08T22:22:32.455Z,12.77
2023-05-08T22:24:58.896Z,12.76
2023-05-08T22:27:25.574Z,12.73
2023-05-08T22:29:51.981Z,12.68
2023-05-08T22:32:18.504Z,12.65
2023-05-08T22:34:44.880Z,12.62
2023-05-08T22:37:13.663Z,12.62
2023-05-08T22:39:40.877Z,12.56
2023-05-08T22:42:07.671Z,12.51
2023-05-08T22:44:34.076Z,12.52
2023-05-08T22:47:00.562Z,12.48
2023-05-08T22:49:27.240Z,12.53
2023-05-08T22:51:53.919Z,12.50
2023-05-08T22:54:20.944Z,12.41
2023-05-08T22:56:47.595Z,12.35
2023-05-08T22:59:16.187Z,12.34
2023-05-08T23:01:42.775Z,12.31
2023-05-08T23:04:09.374Z,12.30
2023-05-08T23:06:35.802Z,12.29
2023-05-08T23:09:02.513Z,12.30
2023-05-08T23:11:31.203Z,12.29
2023-05-08T23:13:57.578Z,12.29
2023-05-08T23:16:24.032Z,12.28
2023-05-08T23:18:50.474Z,12.27
2023-05-08T23:21:18.026Z,12.26
2023-05-08T23:23:44.420Z,12.21
2023-05-08T23:26:10.815Z,12.19
2023-05-08T23:28:37.336Z,12.19
2023-05-08T23:31:04.017Z,12.18
2023-05-08T23:33:30.388Z,12.18
2023-05-08T23:35:56.912Z,12.15
2023-05-08T23:38:23.355Z,12.13
2023-05-08T23:40:50.778Z,12.10
2023-05-08T23:43:17.491Z,12.06
2023-05-08T23:45:44.086Z,12.02
2023-05-08T23:48:10.488Z,11.92
2023-05-08T23:50:36.958Z,11.87
2023-05-08T23:53:03.749Z,11.83
2023-05-08T23:55:30.477Z,11.88
2023-05-08T23:57:56.903Z,11.88
